CheckWX is a tool to help pilots better visualize weather data.  It is not intended as a substitute for an official pre-flight weather briefing.

12:48:26 UTC

ETIC TAF
Grafenwohr Army Air Field Airport
Germany
TAF ETIC 221200Z 2212/2318 VRB06KT 9999 SCT250 QNH3037INS BECMG 2302/2303 VRB06KT 6000 BR BKN020 QNH3033INS BECMG 2308/2309 32012KT 9999 NSW BKN030 QNH3031INS TX18/2214Z TN02/2305Z

Mar-22@
12:00 UTC

Mar-22 @ 12:00 UTC

Mar-23@
02:00 UTC

Mar-23 @ 02:00 UTC

TAF ETIC 221200Z 2212/2318 VRB06KT 9999 SCT250 QNH3037INS
Wind
  • Variable at 6 KTS
Cloud Levels
  • Scattered at 25,000' AGL

Mar-23@
02:00 UTC

Mar-23 @ 02:00 UTC

Mar-23@
08:00 UTC

Mar-23 @ 08:00 UTC

BECMG 2302/2303 VRB06KT 6000 BR BKN020 QNH3033INS

Becoming

Becoming Conditions expected by Sat, Mar 23, 2019 @ 03:00 UTC

Wind
  • Variable at 6 KTS
Conditions
Mist
Cloud Levels
  • Broken at 2,000' AGL

Mar-23@
08:00 UTC

Mar-23 @ 08:00 UTC

Mar-23@
18:00 UTC

Mar-23 @ 18:00 UTC

BECMG 2308/2309 32012KT 9999 NSW BKN030 QNH3031INS TX18/2214Z TN02/2305Z

Becoming

Becoming Conditions expected by Sat, Mar 23, 2019 @ 09:00 UTC

Wind
  • 320° at 12 KTS
Conditions
No significant weather
Cloud Levels
  • Broken at 3,000' AGL